Station: Christmas Creek

  Atmospheric Gas Attenuation - ITU Rec 676-11   --------------- db/100km ---------------
Date Time Temp RH % AH g/m3 Dew Point Wind Direction Speed kph Gust kph Barometer mB Rainfall Since 9am 24GHz 47GHz 76GHz 122GHz 134GHz 241GHz
07 05:40 11.7 62 6.49 4.6 11 15 1020.3 0 15.2 23.4 32.8 85.6 74.0 252.6
07 05:30 11.7 58 6.07 3.8 13 19 1019 0 14.3 22.7 31.1 81.2 68.7 233.9
07 05:20 11.6 62 6.45 4.6 15 17 1020 0 15.1 23.3 32.7 85.3 73.6 251.1
07 05:10 11.4 62 6.36 4.5 9 11 1019.8 0 14.9 23.3 32.4 84.5 72.6 247.7
07 05:00 11.5 58 5.99 3.6 9 13 1018.5 0 14.1 22.6 30.9 80.6 67.8 230.9
07 04:50 11.6 61 6.34 4.5 11 13 1019.6 0 14.9 23.2 32.2 84.1 72.2 246.2
07 04:40 11.8 61 6.42 4.5 11 15 1019.6 0 15.0 23.2 32.4 84.7 73.0 249.1
07 04:30 11.9 57 6.04 3.8 11 15 1018.4 0 14.2 22.6 30.9 80.7 68.1 231.9
07 04:20 12.2 59 6.37 4.6 11 13 1019.6 0 14.9 23.1 32.1 83.8 72.0 245.6
07 04:10 12.4 58 6.34 4.5 11 13 1019.6 0 14.8 23.0 31.9 83.3 71.4 243.7
07 04:00 12.7 53 5.9 3.5 13 19 1018.4 0 13.9 22.2 30.1 78.5 65.7 223.7
07 03:40 12.9 56 6.31 4.5 15 19 1019.5 0 14.7 22.8 31.6 82.4 70.6 240.9
07 03:10 13.2 55 6.32 4.3 19 24 1019.4 0 14.8 22.7 31.5 82.2 70.5 240.4
07 03:00 12.9 51 5.75 3.2 15 22 1018.2 0 13.6 21.9 29.5 76.8 63.7 216.7
07 02:50 12.1 56 6.01 3.7 13 15 1019.5 0 14.1 22.5 30.8 80.3 67.6 230.3
07 02:40 11.5 57 5.89 3.3 9 11 1019.6 0 13.9 22.5 30.6 79.7 66.7 226.8
07 02:30 11.4 52 5.34 2 9 11 1018.4 0 12.7 21.7 28.5 74.2 60.0 203.3
07 02:20 11.2 56 5.68 2.8 7 9 1019.6 0 13.5 22.3 29.9 77.9 64.3 218.6
07 02:10 11.4 55 5.65 2.8 6 7 1019.7 0 13.4 22.2 29.7 77.4 63.8 216.8
07 02:00 11.8 50 5.26 1.7 6 6 1018.5 0 12.6 21.5 28.1 73.1 58.7 199.0
07 01:50 11.9 53 5.61 2.7 6 7 1019.7 0 13.3 22.0 29.4 76.5 62.9 213.7
07 01:30 12.1 48 5.15 1.5 7 9 1018.5 0 12.3 21.2 27.6 71.8 57.2 193.7
07 01:20 12.3 52 5.65 2.8 9 9 1019.8 0 13.4 22.0 29.4 76.5 63.1 214.4
07 01:10 12.7 51 5.68 2.9 7 7 1019.8 0 13.4 21.9 29.4 76.5 63.1 214.6
07 01:00 13.2 45 5.17 1.6 7 9 1018.8 0 12.3 21.0 27.3 71.0 56.7 191.9
07 00:50 14.1 48 5.83 3.2 7 9 1020 0 13.7 21.8 29.4 76.6 63.8 217.2
07 00:40 14.1 47 5.7 3 7 9 1019.9 0 13.4 21.6 28.9 75.3 62.3 211.8
07 00:30 14.2 42 5.13 1.6 9 11 1018.7 0 12.2 20.7 26.9 69.8 55.5 188.0
07 00:20 14.2 46 5.62 2.9 9 9 1019.9 0 13.2 21.5 28.6 74.5 61.3 208.2
07 00:10 14.3 46 5.65 2.9 9 11 1019.8 0 13.3 21.5 28.7 74.7 61.5 209.2
07 00:00 14.6 40 5.01 1.3 9 11 1018.6 0 11.9 20.5 26.3 68.3 53.8 182.2
06 23:50 14.9 44 5.61 2.9 9 11 1019.9 0 13.2 21.3 28.3 73.7 60.6 206.0
06 23:40 15.4 43 5.65 2.9 11 15 1020 0 13.3 21.2 28.3 73.7 60.7 206.4
06 23:30 15.5 37 4.89 1.1 9 15 1018.8 0 11.7 20.1 25.6 66.5 51.9 175.5
06 23:20 15.7 42 5.62 2.9 11 13 1020 0 13.2 21.1 28.1 73.1 60.1 204.4
06 23:10 15.9 41 5.55 2.9 11 13 1020 0 13.0 21.0 27.8 72.3 59.2 201.1
06 23:00 15.9 36 4.88 0.8 11 15 1018.8 0 11.6 20.0 25.5 66.1 51.5 174.3
06 22:50 15.9 40 5.42 2.4 11 13 1020 0 12.8 20.8 27.3 71.1 57.7 195.9
06 22:40 15.9 39 5.28 2.1 11 13 1020 0 12.5 20.6 26.9 69.8 56.1 190.3
06 22:30 16 33 4.5 -0.1 9 15 1018.8 0 10.8 19.5 24.2 62.6 47.3 159.3
06 22:20 16.2 38 5.24 1.9 11 13 1019.9 0 12.4 20.5 26.6 69.2 55.4 188.0
06 22:10 16.4 37 5.16 1.9 11 15 1019.9 0 12.2 20.3 26.3 68.3 54.4 184.4
06 22:00 16.7 31 4.41 -0.3 11 15 1018.6 0 10.6 19.2 23.7 61.3 45.9 154.5
06 21:50 16.9 37 5.32 2.2 9 11 1019.8 0 12.5 20.4 26.7 69.3 55.8 189.5
06 21:40 17.1 36 5.24 2 11 13 1019.7 0 12.3 20.3 26.3 68.4 54.8 185.9
06 21:30 17.1 31 4.51 -0.2 15 20 1018.4 0 10.8 19.3 23.9 61.8 46.7 157.5
06 21:20 17.1 35 5.09 1.5 13 17 1019.6 0 12.0 20.1 25.8 67.0 53.1 180.0
06 21:10 17.1 34 4.95 1.3 15 17 1019.6 0 11.7 19.9 25.4 65.8 51.6 174.6
06 21:00 16.9 29 4.17 -1 13 19 1018.3 0 10.1 18.8 22.8 59.0 43.2 145.0
06 20:50 16.6 35 4.94 1.1 11 13 1019.5 0 11.7 20.0 25.5 66.1 51.8 175.2
06 20:40 16.7 34 4.83 1 9 11 1019.4 0 11.5 19.8 25.1 65.0 50.5 170.7
06 20:30 17 29 4.2 -1.2 7 11 1018.1 0 10.2 18.9 22.9 59.2 43.4 145.9
06 20:20 17.3 33 4.86 1 7 9 1019.3 0 11.5 19.7 25.0 64.8 50.5 170.6
06 20:10 17.5 33 4.92 1 9 9 1019.1 0 11.7 19.7 25.1 65.2 51.0 172.5
06 20:00 17.5 28 4.17 -1.3 9 11 1017.8 0 10.1 18.7 22.6 58.6 42.9 143.9
06 19:50 17.7 32 4.83 1 9 11 1019 0 11.5 19.6 24.8 64.2 49.9 168.6
06 19:40 18 32 4.91 1 11 15 1018.9 0 11.6 19.6 24.9 64.7 50.6 171.1
06 19:30 18.2 26 4.04 -1.5 11 13 1017.6 0 9.8 18.4 22.0 56.9 41.1 137.9
06 19:20 18.4 31 4.88 1 9 11 1018.7 0 11.5 19.5 24.7 64.1 50.0 169.1
06 19:10 18.7 30 4.8 1 11 13 1018.5 0 11.4 19.3 24.4 63.1 48.9 165.4
06 19:00 18.7 25 4 -1.7 11 15 1017.1 0 9.7 18.2 21.8 56.2 40.4 135.5
06 18:50 18.9 30 4.86 1 11 13 1018.2 0 11.5 19.3 24.5 63.5 49.4 167.2
06 18:40 19 30 4.89 1 11 13 1018.1 0 11.5 19.4 24.5 63.7 49.7 168.1
06 18:30 19.3 24 3.98 -1.6 11 15 1016.9 0 9.6 18.1 21.5 55.7 39.9 133.8
06 18:20 19.5 29 4.87 0.9 9 13 1018 0 11.5 19.2 24.3 63.1 49.2 166.4
06 18:10 20 28 4.84 0.9 11 13 1017.9 0 11.4 19.1 24.1 62.5 48.6 164.2
06 18:00 20.4 21 3.71 -2.2 15 24 1016.5 0 9.1 17.5 20.4 52.7 36.7 122.5
06 17:50 20.5 27 4.8 0.9 19 20 1017.6 0 11.3 18.9 23.8 61.7 47.8 161.7
06 17:40 20.8 26 4.71 0.9 13 17 1017.5 0 11.1 18.7 23.4 60.7 46.7 157.9
06 17:30 21 21 3.85 -2.1 15 20 1016.3 0 9.3 17.6 20.7 53.4 37.8 126.5
06 17:20 21.2 26 4.82 1 11 15 1017.4 0 11.3 18.8 23.7 61.4 47.6 161.1
06 17:10 21.3 26 4.85 1 15 19 1017.3 0 11.4 18.8 23.7 61.5 47.9 162.0
06 17:00 21.4 20 3.75 -2.1 17 26 1016.1 0 9.1 17.4 20.3 52.4 36.6 122.4
06 16:50 21.5 25 4.71 0.9 15 19 1017.2 0 11.1 18.6 23.2 60.2 46.3 156.5
06 16:40 21.4 25 4.69 0.7 19 24 1017.2 0 11.1 18.6 23.2 60.1 46.2 156.0
06 16:30 21.5 19 3.58 -2.7 24 37 1016 0 8.8 17.2 19.8 51.0 34.9 116.3
06 16:20 21.7 24 4.58 0.5 20 26 1017.2 0 10.8 18.4 22.8 59.0 44.9 151.4
06 16:10 21.5 24 4.53 0.5 15 20 1017.2 0 10.7 18.4 22.7 58.7 44.5 150.0
06 16:00 21.5 19 3.58 -3.1 19 30 1015.9 0 8.8 17.2 19.8 50.9 34.9 116.3
06 15:50 21.7 24 4.58 0.6 20 22 1017.1 0 10.8 18.4 22.8 59.0 44.9 151.4
06 15:40 21.6 25 4.74 0.8 15 19 1017.1 0 11.2 18.6 23.3 60.4 46.6 157.4
06 15:30 21.5 19 3.58 -2.7 22 32 1015.9 0 8.8 17.2 19.8 50.9 34.9 116.3
06 15:20 21.8 23 4.41 0.2 24 30 1017.1 0 10.5 18.2 22.2 57.5 43.1 145.2
06 15:10 21.3 25 4.66 0.6 19 24 1017.1 0 11.0 18.6 23.1 59.9 45.9 155.1
06 15:00 21.7 19 3.62 -3.1 22 32 1016.1 0 8.8 17.2 19.8 51.2 35.2 117.5
06 14:50 21.1 25 4.61 0.5 20 24 1017.3 0 10.9 18.6 23.0 59.7 45.5 153.6
06 14:40 21.4 24 4.5 0.4 28 32 1017.4 0 10.7 18.4 22.6 58.6 44.2 149.1
06 14:30 20.9 20 3.64 -2.8 19 28 1016.2 0 8.9 17.3 20.1 51.8 35.8 119.3
06 14:20 21.3 25 4.66 0.6 13 19 1017.5 0 11.0 18.6 23.1 60.0 45.9 155.1
06 14:10 20.7 26 4.68 0.4 13 17 1017.5 0 11.1 18.7 23.4 60.6 46.5 156.9
06 14:00 20.5 20 3.56 -2.8 20 33 1016.4 0 8.7 17.3 20.0 51.4 35.1 117.1
06 13:50 20.6 26 4.65 0.5 15 19 1017.8 0 11.0 18.7 23.3 60.4 46.2 156.1
06 13:40 20.4 27 4.78 0.7 22 30 1017.8 0 11.3 18.9 23.8 61.6 47.7 161.2
06 13:30 20.5 21 3.74 -2.4 20 30 1016.6 0 9.1 17.6 20.5 52.9 36.9 123.4
06 13:20 19.8 27 4.61 0.6 17 24 1017.9 0 10.9 18.8 23.4 60.7 46.2 156.1
06 13:10 20.1 27 4.69 0.8 24 28 1018 0 11.1 18.9 23.6 61.1 46.9 158.5
06 13:00 19.6 22 3.71 -2.7 22 30 1016.9 0 9.1 17.7 20.6 53.2 37.0 123.7
06 12:50 19.1 28 4.59 0.4 19 24 1018.4 0 10.9 19.0 23.6 61.0 46.5 156.7
06 12:40 19.3 28 4.64 0.3 24 32 1018.4 0 11.0 19.0 23.7 61.3 46.9 158.2
06 12:30 20 22 3.8 -2.2 20 32 1017.4 0 9.3 17.7 20.8 53.7 37.8 126.4

Last Refresh: 07-Aug-2020 07:19:26

Most of the information presented on this site is sourced from the Bureau of Meteorology.  Copyright in all material sourced from the Bureau of Meteorology resides with the Commonwealth of Australia.